Raynesford, Montana
Current Conditions -  °F | °C
As of 12:56 PM on Saturday 20 Dec 2014 (Local Time) from KGFA Reporting Station
Broken Clouds Broken Clouds  
Wind Chill: 32°   Ceiling: 6500
Heat Index: 41°   Visibility: 10mi
Dew Point: 23°   Wind: 20mph
Humidity: 49%   Direction: 230°SW
Pressure: 29.8"   Gusts: 29mph
Location:  47.27°N, 110.73°W
Report Text: KGFA 201956Z AUTO 23017G25KT 10SM BKN065 05/M05 A2980 RMK AO2 SLP114 T00491051
Loading
Personal Weather Stations






























Interactive Weather Map New forecast layout! Learn more

10-Day Weather Forecast

Advertisements
Track Severe Weather on mobile